sensor_id;sensor_type;location;lat;lon;timestamp;pressure;altitude;pressure_sealevel;temperature;humidity
50702;BME280;36670;50.094;8.496;2024-01-16T00:01:13;99665.63;;;3.04;57.75
50702;BME280;36670;50.094;8.496;2024-01-16T00:03:39;99674.34;;;3.19;57.92
50702;BME280;36670;50.094;8.496;2024-01-16T00:06:04;99676.66;;;3.16;57.55
50702;BME280;36670;50.094;8.496;2024-01-16T00:08:31;99681.72;;;3.19;57.60
50702;BME280;36670;50.094;8.496;2024-01-16T00:10:57;99681.66;;;3.25;57.86
50702;BME280;36670;50.094;8.496;2024-01-16T00:13:22;99685.44;;;3.24;57.76
50702;BME280;36670;50.094;8.496;2024-01-16T00:15:48;99690.66;;;3.33;58.23
50702;BME280;36670;50.094;8.496;2024-01-16T00:18:17;99687.59;;;3.48;57.47
50702;BME280;36670;50.094;8.496;2024-01-16T00:20:52;99684.97;;;3.34;57.63
50702;BME280;36670;50.094;8.496;2024-01-16T00:23:18;99689.56;;;3.34;57.84
50702;BME280;36670;50.094;8.496;2024-01-16T00:25:43;99688.84;;;3.45;57.55
50702;BME280;36670;50.094;8.496;2024-01-16T00:28:08;99699.41;;;3.41;57.68
50702;BME280;36670;50.094;8.496;2024-01-16T00:30:34;99693.00;;;3.22;57.94
50702;BME280;36670;50.094;8.496;2024-01-16T00:32:59;99691.69;;;2.93;58.83
50702;BME280;36670;50.094;8.496;2024-01-16T00:35:25;99691.19;;;3.10;58.00
50702;BME280;36670;50.094;8.496;2024-01-16T00:37:50;99697.25;;;3.12;58.39
50702;BME280;36670;50.094;8.496;2024-01-16T00:40:19;99695.41;;;3.05;58.59
50702;BME280;36670;50.094;8.496;2024-01-16T00:42:44;99695.44;;;3.37;57.76
50702;BME280;36670;50.094;8.496;2024-01-16T00:45:10;99702.03;;;3.23;57.60
50702;BME280;36670;50.094;8.496;2024-01-16T00:47:35;99699.38;;;3.10;57.91
50702;BME280;36670;50.094;8.496;2024-01-16T00:50:01;99703.03;;;2.97;57.77
50702;BME280;36670;50.094;8.496;2024-01-16T00:52:27;99708.06;;;2.93;57.89
50702;BME280;36670;50.094;8.496;2024-01-16T00:54:53;99709.66;;;3.07;58.02
50702;BME280;36670;50.094;8.496;2024-01-16T00:57:18;99705.34;;;2.93;58.02
50702;BME280;36670;50.094;8.496;2024-01-16T00:59:47;99704.19;;;3.07;57.78
50702;BME280;36670;50.094;8.496;2024-01-16T01:02:12;99706.31;;;3.05;58.20
50702;BME280;36670;50.094;8.496;2024-01-16T01:04:38;99702.13;;;3.10;57.59
50702;BME280;36670;50.094;8.496;2024-01-16T01:07:03;99707.84;;;3.33;57.43
50702;BME280;36670;50.094;8.496;2024-01-16T01:09:29;99714.50;;;3.05;57.63
50702;BME280;36670;50.094;8.496;2024-01-16T01:11:57;99704.78;;;3.23;58.30
50702;BME280;36670;50.094;8.496;2024-01-16T01:14:22;99709.94;;;3.31;57.79
50702;BME280;36670;50.094;8.496;2024-01-16T01:16:48;99715.03;;;3.28;58.23
50702;BME280;36670;50.094;8.496;2024-01-16T01:19:13;99708.81;;;3.14;58.13
50702;BME280;36670;50.094;8.496;2024-01-16T01:21:42;99707.03;;;2.87;58.41
50702;BME280;36670;50.094;8.496;2024-01-16T01:24:07;99715.00;;;2.89;58.20
50702;BME280;36670;50.094;8.496;2024-01-16T01:26:34;99720.78;;;3.06;58.62
50702;BME280;36670;50.094;8.496;2024-01-16T01:28:59;99718.22;;;3.18;58.34
50702;BME280;36670;50.094;8.496;2024-01-16T01:31:24;99725.63;;;3.11;58.54
50702;BME280;36670;50.094;8.496;2024-01-16T01:33:53;99727.69;;;3.15;58.49
50702;BME280;36670;50.094;8.496;2024-01-16T01:36:18;99726.63;;;3.16;58.43
50702;BME280;36670;50.094;8.496;2024-01-16T01:38:44;99741.31;;;3.15;58.09
50702;BME280;36670;50.094;8.496;2024-01-16T01:41:09;99744.50;;;3.05;58.62
50702;BME280;36670;50.094;8.496;2024-01-16T01:43:37;99740.91;;;3.12;58.60
50702;BME280;36670;50.094;8.496;2024-01-16T01:46:13;99744.59;;;3.31;58.51
50702;BME280;36670;50.094;8.496;2024-01-16T01:48:43;99748.06;;;3.06;58.00
50702;BME280;36670;50.094;8.496;2024-01-16T01:51:12;99752.16;;;3.29;58.02
50702;BME280;36670;50.094;8.496;2024-01-16T01:53:39;99754.03;;;3.28;58.76
50702;BME280;36670;50.094;8.496;2024-01-16T01:56:11;99754.13;;;3.15;58.99
50702;BME280;36670;50.094;8.496;2024-01-16T01:58:37;99762.00;;;3.30;58.28
50702;BME280;36670;50.094;8.496;2024-01-16T02:01:05;99761.59;;;3.65;57.45
50702;BME280;36670;50.094;8.496;2024-01-16T02:03:39;99774.53;;;3.44;57.94
50702;BME280;36670;50.094;8.496;2024-01-16T02:06:05;99766.06;;;3.20;58.39
50702;BME280;36670;50.094;8.496;2024-01-16T02:08:31;99761.63;;;3.26;58.18
50702;BME280;36670;50.094;8.496;2024-01-16T02:10:57;99765.53;;;2.98;59.13
50702;BME280;36670;50.094;8.496;2024-01-16T02:13:22;99760.81;;;3.19;58.70
50702;BME280;36670;50.094;8.496;2024-01-16T02:15:49;99748.63;;;3.21;59.04
50702;BME280;36670;50.094;8.496;2024-01-16T02:18:15;99764.19;;;3.14;59.08
50702;BME280;36670;50.094;8.496;2024-01-16T02:20:41;99762.06;;;3.23;58.50
50702;BME280;36670;50.094;8.496;2024-01-16T02:23:07;99759.47;;;3.35;58.41
50702;BME280;36670;50.094;8.496;2024-01-16T02:25:32;99760.25;;;3.03;58.88
50702;BME280;36670;50.094;8.496;2024-01-16T02:27:59;99761.66;;;3.19;58.53
50702;BME280;36670;50.094;8.496;2024-01-16T02:30:25;99752.03;;;3.10;59.34
50702;BME280;36670;50.094;8.496;2024-01-16T02:32:50;99759.25;;;3.36;58.43
50702;BME280;36670;50.094;8.496;2024-01-16T02:35:16;99763.56;;;3.12;58.63
50702;BME280;36670;50.094;8.496;2024-01-16T02:37:43;99757.00;;;3.20;59.24
50702;BME280;36670;50.094;8.496;2024-01-16T02:40:09;99760.25;;;3.42;58.50
50702;BME280;36670;50.094;8.496;2024-01-16T02:42:35;99755.78;;;3.16;58.53
50702;BME280;36670;50.094;8.496;2024-01-16T02:45:04;99756.31;;;3.31;57.80
50702;BME280;36670;50.094;8.496;2024-01-16T02:47:29;99766.31;;;3.05;58.59
50702;BME280;36670;50.094;8.496;2024-01-16T02:49:55;99758.88;;;3.33;57.96
50702;BME280;36670;50.094;8.496;2024-01-16T02:52:20;99766.59;;;3.36;58.39
50702;BME280;36670;50.094;8.496;2024-01-16T02:54:46;99764.34;;;3.26;58.13
50702;BME280;36670;50.094;8.496;2024-01-16T02:57:12;99766.16;;;3.39;58.61
50702;BME280;36670;50.094;8.496;2024-01-16T02:59:37;99766.34;;;3.76;57.67
50702;BME280;36670;50.094;8.496;2024-01-16T03:02:03;99773.88;;;3.49;57.92
50702;BME280;36670;50.094;8.496;2024-01-16T03:04:29;99769.81;;;3.26;57.84
50702;BME280;36670;50.094;8.496;2024-01-16T03:06:55;99776.75;;;3.22;58.02
50702;BME280;36670;50.094;8.496;2024-01-16T03:09:20;99777.34;;;2.79;58.70
50702;BME280;36670;50.094;8.496;2024-01-16T03:11:46;99787.09;;;3.06;57.98
50702;BME280;36670;50.094;8.496;2024-01-16T03:14:12;99789.34;;;3.23;57.63
50702;BME280;36670;50.094;8.496;2024-01-16T03:16:39;99790.19;;;3.62;57.56
50702;BME280;36670;50.094;8.496;2024-01-16T03:19:04;99790.59;;;3.27;57.26
50702;BME280;36670;50.094;8.496;2024-01-16T03:21:30;99775.09;;;3.14;57.44
50702;BME280;36670;50.094;8.496;2024-01-16T03:23:55;99795.09;;;3.47;57.67
50702;BME280;36670;50.094;8.496;2024-01-16T03:26:21;99798.47;;;3.42;57.27
50702;BME280;36670;50.094;8.496;2024-01-16T03:28:46;99802.94;;;3.30;58.47
50702;BME280;36670;50.094;8.496;2024-01-16T03:31:14;99801.44;;;3.72;57.05
50702;BME280;36670;50.094;8.496;2024-01-16T03:33:44;99797.38;;;3.50;57.52
50702;BME280;36670;50.094;8.496;2024-01-16T03:36:10;99801.56;;;3.52;57.73
50702;BME280;36670;50.094;8.496;2024-01-16T03:38:37;99793.69;;;3.69;57.33
50702;BME280;36670;50.094;8.496;2024-01-16T03:41:03;99797.16;;;3.51;57.63
50702;BME280;36670;50.094;8.496;2024-01-16T03:43:29;99800.13;;;3.50;57.83
50702;BME280;36670;50.094;8.496;2024-01-16T03:45:58;99798.44;;;3.81;57.48
50702;BME280;36670;50.094;8.496;2024-01-16T03:48:23;99806.53;;;3.69;57.25
50702;BME280;36670;50.094;8.496;2024-01-16T03:50:49;99799.50;;;3.80;56.54
50702;BME280;36670;50.094;8.496;2024-01-16T03:53:14;99801.09;;;3.62;56.94
50702;BME280;36670;50.094;8.496;2024-01-16T03:55:49;99797.63;;;3.41;57.46
50702;BME280;36670;50.094;8.496;2024-01-16T03:58:15;99794.75;;;3.68;57.59
50702;BME280;36670;50.094;8.496;2024-01-16T04:00:41;99791.81;;;3.63;57.78
50702;BME280;36670;50.094;8.496;2024-01-16T04:03:06;99789.34;;;3.87;56.97
50702;BME280;36670;50.094;8.496;2024-01-16T04:05:33;99781.72;;;4.02;56.72
50702;BME280;36670;50.094;8.496;2024-01-16T04:07:58;99795.25;;;3.52;57.19
50702;BME280;36670;50.094;8.496;2024-01-16T04:10:24;99795.34;;;3.38;57.48
50702;BME280;36670;50.094;8.496;2024-01-16T04:12:49;99797.25;;;3.31;57.80
50702;BME280;36670;50.094;8.496;2024-01-16T04:15:18;99790.06;;;3.44;57.43
50702;BME280;36670;50.094;8.496;2024-01-16T04:17:43;99800.19;;;3.68;57.50
50702;BME280;36670;50.094;8.496;2024-01-16T04:20:14;99794.16;;;3.66;56.71
50702;BME280;36670;50.094;8.496;2024-01-16T04:22:40;99802.59;;;3.58;57.04
50702;BME280;36670;50.094;8.496;2024-01-16T04:25:06;99802.47;;;3.39;57.78
50702;BME280;36670;50.094;8.496;2024-01-16T04:27:31;99803.03;;;3.10;57.57
50702;BME280;36670;50.094;8.496;2024-01-16T04:29:57;99801.31;;;3.15;57.52
50702;BME280;36670;50.094;8.496;2024-01-16T04:32:23;99807.97;;;3.33;57.17
50702;BME280;36670;50.094;8.496;2024-01-16T04:34:48;99809.09;;;3.12;57.57
50702;BME280;36670;50.094;8.496;2024-01-16T04:37:16;99807.84;;;3.07;57.34
50702;BME280;36670;50.094;8.496;2024-01-16T04:39:51;99808.81;;;3.33;57.37
50702;BME280;36670;50.094;8.496;2024-01-16T04:42:19;99805.06;;;3.21;57.63
50702;BME280;36670;50.094;8.496;2024-01-16T04:44:47;99816.78;;;3.28;56.90
50702;BME280;36670;50.094;8.496;2024-01-16T04:47:20;99807.13;;;3.25;57.35
50702;BME280;36670;50.094;8.496;2024-01-16T04:49:45;99810.41;;;3.02;57.39
50702;BME280;36670;50.094;8.496;2024-01-16T04:52:11;99802.81;;;3.04;57.74
50702;BME280;36670;50.094;8.496;2024-01-16T04:54:42;99810.34;;;3.16;57.86
50702;BME280;36670;50.094;8.496;2024-01-16T04:57:08;99806.25;;;2.80;58.51
50702;BME280;36670;50.094;8.496;2024-01-16T04:59:38;99809.63;;;2.75;58.38
50702;BME280;36670;50.094;8.496;2024-01-16T05:02:07;99811.19;;;3.16;57.50
50702;BME280;36670;50.094;8.496;2024-01-16T05:04:32;99807.38;;;3.24;57.52
50702;BME280;36670;50.094;8.496;2024-01-16T05:07:01;99800.28;;;3.16;57.93
50702;BME280;36670;50.094;8.496;2024-01-16T05:09:26;99793.03;;;3.35;57.31
50702;BME280;36670;50.094;8.496;2024-01-16T05:11:52;99800.66;;;3.20;58.01
50702;BME280;36670;50.094;8.496;2024-01-16T05:14:17;99794.13;;;3.28;57.51
50702;BME280;36670;50.094;8.496;2024-01-16T05:16:46;99792.56;;;3.45;56.97
50702;BME280;36670;50.094;8.496;2024-01-16T05:19:11;99791.06;;;3.49;57.47
50702;BME280;36670;50.094;8.496;2024-01-16T05:21:37;99787.78;;;3.40;57.22
50702;BME280;36670;50.094;8.496;2024-01-16T05:24:03;99792.00;;;3.68;56.75
50702;BME280;36670;50.094;8.496;2024-01-16T05:26:28;99776.28;;;3.96;56.51
50702;BME280;36670;50.094;8.496;2024-01-16T05:28:54;99781.31;;;4.24;55.75
50702;BME280;36670;50.094;8.496;2024-01-16T05:31:22;99785.25;;;4.28;55.66
50702;BME280;36670;50.094;8.496;2024-01-16T05:33:48;99746.66;;;4.43;55.01
50702;BME280;36670;50.094;8.496;2024-01-16T05:36:13;99777.72;;;4.67;55.16
50702;BME280;36670;50.094;8.496;2024-01-16T05:38:39;99780.34;;;4.37;55.34
50702;BME280;36670;50.094;8.496;2024-01-16T05:41:04;99781.13;;;4.19;56.35
50702;BME280;36670;50.094;8.496;2024-01-16T05:43:37;99778.25;;;4.14;55.77
50702;BME280;36670;50.094;8.496;2024-01-16T05:46:05;99781.31;;;3.99;55.58
50702;BME280;36670;50.094;8.496;2024-01-16T05:48:37;99776.94;;;3.59;56.30
50702;BME280;36670;50.094;8.496;2024-01-16T05:51:11;99779.38;;;3.35;56.47
50702;BME280;36670;50.094;8.496;2024-01-16T05:53:37;99773.00;;;3.16;57.24
50702;BME280;36670;50.094;8.496;2024-01-16T05:56:11;99767.09;;;3.19;56.84
50702;BME280;36670;50.094;8.496;2024-01-16T05:58:39;99760.81;;;3.19;56.89
50702;BME280;36670;50.094;8.496;2024-01-16T06:01:08;99768.78;;;3.20;57.32
50702;BME280;36670;50.094;8.496;2024-01-16T06:03:48;99756.72;;;3.35;56.85
50702;BME280;36670;50.094;8.496;2024-01-16T06:06:22;99759.16;;;3.11;57.15
50702;BME280;36670;50.094;8.496;2024-01-16T06:09:08;99751.19;;;3.10;56.32
50702;BME280;36670;50.094;8.496;2024-01-16T06:11:49;99750.91;;;2.72;57.29
50702;BME280;36670;50.094;8.496;2024-01-16T06:14:50;99755.63;;;2.38;58.24
50702;BME280;36670;50.094;8.496;2024-01-16T06:17:42;99751.66;;;2.28;58.41
50702;BME280;36670;50.094;8.496;2024-01-16T06:23:24;99757.31;;;2.13;59.25
50702;BME280;36670;50.094;8.496;2024-01-16T06:25:54;99756.69;;;2.31;58.56
50702;BME280;36670;50.094;8.496;2024-01-16T06:28:35;99749.53;;;2.43;58.40
50702;BME280;36670;50.094;8.496;2024-01-16T06:31:27;99746.00;;;2.29;58.75
50702;BME280;36670;50.094;8.496;2024-01-16T06:33:59;99746.88;;;1.90;59.93
50702;BME280;36670;50.094;8.496;2024-01-16T06:36:27;99743.75;;;1.99;58.91
50702;BME280;36670;50.094;8.496;2024-01-16T06:38:58;99746.44;;;1.73;59.63
50702;BME280;36670;50.094;8.496;2024-01-16T06:41:45;99753.16;;;1.70;60.09
50702;BME280;36670;50.094;8.496;2024-01-16T06:44:25;99750.66;;;1.88;60.51
50702;BME280;36670;50.094;8.496;2024-01-16T06:47:11;99757.56;;;1.64;59.79
50702;BME280;36670;50.094;8.496;2024-01-16T06:50:02;99757.97;;;1.95;59.46
50702;BME280;36670;50.094;8.496;2024-01-16T06:55:45;99754.84;;;1.91;60.01
50702;BME280;36670;50.094;8.496;2024-01-16T06:58:31;99753.97;;;1.91;59.72
50702;BME280;36670;50.094;8.496;2024-01-16T07:01:06;99754.84;;;1.84;60.34
50702;BME280;36670;50.094;8.496;2024-01-16T07:03:52;99758.00;;;1.88;59.43
50702;BME280;36670;50.094;8.496;2024-01-16T07:06:32;99754.00;;;1.77;59.39
50702;BME280;36670;50.094;8.496;2024-01-16T07:09:12;99760.66;;;1.61;60.79
50702;BME280;36670;50.094;8.496;2024-01-16T07:12:00;99761.28;;;1.57;59.90
50702;BME280;36670;50.094;8.496;2024-01-16T07:14:29;99764.66;;;1.65;60.21
50702;BME280;36670;50.094;8.496;2024-01-16T07:16:57;99768.03;;;1.94;59.55
50702;BME280;36670;50.094;8.496;2024-01-16T07:19:25;99764.25;;;1.75;60.78
50702;BME280;36670;50.094;8.496;2024-01-16T07:22:03;99781.00;;;1.85;60.77
50702;BME280;36670;50.094;8.496;2024-01-16T07:25:02;99782.03;;;2.04;59.82
50702;BME280;36670;50.094;8.496;2024-01-16T07:27:37;99782.47;;;2.15;59.44
50702;BME280;36670;50.094;8.496;2024-01-16T07:30:31;99782.88;;;2.25;58.83
50702;BME280;36670;50.094;8.496;2024-01-16T07:33:02;99779.53;;;2.23;59.62
50702;BME280;36670;50.094;8.496;2024-01-16T07:35:32;99777.81;;;2.42;59.38
50702;BME280;36670;50.094;8.496;2024-01-16T07:37:58;99778.91;;;2.34;58.38
50702;BME280;36670;50.094;8.496;2024-01-16T07:40:24;99783.91;;;2.51;58.49
50702;BME280;36670;50.094;8.496;2024-01-16T07:42:49;99792.34;;;3.01;57.93
50702;BME280;36670;50.094;8.496;2024-01-16T07:45:14;99793.72;;;3.24;56.36
50702;BME280;36670;50.094;8.496;2024-01-16T07:47:40;99795.66;;;3.17;56.23
50702;BME280;36670;50.094;8.496;2024-01-16T07:50:06;99791.13;;;2.97;56.68
50702;BME280;36670;50.094;8.496;2024-01-16T07:52:32;99792.25;;;3.28;56.33
50702;BME280;36670;50.094;8.496;2024-01-16T07:54:57;99795.16;;;3.33;56.43
50702;BME280;36670;50.094;8.496;2024-01-16T07:57:23;99787.25;;;4.14;55.12
50702;BME280;36670;50.094;8.496;2024-01-16T07:59:48;99797.34;;;3.88;54.60
50702;BME280;36670;50.094;8.496;2024-01-16T08:02:13;99790.13;;;4.26;54.14
50702;BME280;36670;50.094;8.496;2024-01-16T08:04:39;99785.63;;;4.75;53.35
50702;BME280;36670;50.094;8.496;2024-01-16T08:07:04;99788.47;;;4.87;53.56
50702;BME280;36670;50.094;8.496;2024-01-16T08:09:30;99785.03;;;4.73;53.31
50702;BME280;36670;50.094;8.496;2024-01-16T08:11:55;99782.44;;;4.78;52.80
50702;BME280;36670;50.094;8.496;2024-01-16T08:14:20;99789.34;;;4.81;53.01
50702;BME280;36670;50.094;8.496;2024-01-16T08:16:45;99797.47;;;5.06;52.12
50702;BME280;36670;50.094;8.496;2024-01-16T08:19:11;99790.22;;;4.82;52.28
50702;BME280;36670;50.094;8.496;2024-01-16T08:21:36;99795.56;;;4.88;52.32
50702;BME280;36670;50.094;8.496;2024-01-16T08:24:02;99795.94;;;4.55;52.57
50702;BME280;36670;50.094;8.496;2024-01-16T08:26:28;99794.59;;;4.64;52.27
50702;BME280;36670;50.094;8.496;2024-01-16T08:28:54;99803.09;;;4.74;52.27
50702;BME280;36670;50.094;8.496;2024-01-16T08:31:19;99800.38;;;4.93;51.76
50702;BME280;36670;50.094;8.496;2024-01-16T08:33:45;99807.03;;;4.60;52.94
50702;BME280;36670;50.094;8.496;2024-01-16T08:36:11;99806.97;;;4.85;52.09
50702;BME280;36670;50.094;8.496;2024-01-16T08:38:36;99790.44;;;4.99;51.90
50702;BME280;36670;50.094;8.496;2024-01-16T08:41:02;99806.53;;;4.88;51.45
50702;BME280;36670;50.094;8.496;2024-01-16T08:43:31;99813.91;;;5.06;52.08
50702;BME280;36670;50.094;8.496;2024-01-16T08:45:56;99820.44;;;4.87;52.26
50702;BME280;36670;50.094;8.496;2024-01-16T08:48:22;99822.63;;;4.96;51.50
50702;BME280;36670;50.094;8.496;2024-01-16T08:50:47;99814.56;;;5.20;52.27
50702;BME280;36670;50.094;8.496;2024-01-16T08:53:12;99816.75;;;5.49;50.62
50702;BME280;36670;50.094;8.496;2024-01-16T08:55:38;99820.59;;;5.59;50.46
50702;BME280;36670;50.094;8.496;2024-01-16T08:58:03;99819.94;;;5.45;50.78
50702;BME280;36670;50.094;8.496;2024-01-16T09:00:29;99821.22;;;4.50;51.79
50702;BME280;36670;50.094;8.496;2024-01-16T09:02:54;99815.81;;;5.06;51.88
50702;BME280;36670;50.094;8.496;2024-01-16T09:05:19;99823.22;;;5.36;51.11
50702;BME280;36670;50.094;8.496;2024-01-16T09:07:50;99813.25;;;5.41;51.37
50702;BME280;36670;50.094;8.496;2024-01-16T09:10:15;99818.22;;;5.33;50.55
50702;BME280;36670;50.094;8.496;2024-01-16T09:12:41;99790.22;;;5.49;50.65
50702;BME280;36670;50.094;8.496;2024-01-16T09:15:06;99807.66;;;5.36;51.49
50702;BME280;36670;50.094;8.496;2024-01-16T09:17:32;99801.78;;;5.51;50.89
50702;BME280;36670;50.094;8.496;2024-01-16T09:19:57;99800.38;;;4.93;51.37
50702;BME280;36670;50.094;8.496;2024-01-16T09:22:22;99809.25;;;4.88;51.40
50702;BME280;36670;50.094;8.496;2024-01-16T09:24:48;99808.19;;;4.71;51.13
50702;BME280;36670;50.094;8.496;2024-01-16T09:27:13;99816.47;;;4.64;51.94
50702;BME280;36670;50.094;8.496;2024-01-16T09:29:40;99832.38;;;5.11;51.68
50702;BME280;36670;50.094;8.496;2024-01-16T09:32:05;99833.13;;;4.81;52.42
50702;BME280;36670;50.094;8.496;2024-01-16T09:34:31;99832.81;;;4.71;52.34
50702;BME280;36670;50.094;8.496;2024-01-16T09:36:56;99846.63;;;4.76;52.17
50702;BME280;36670;50.094;8.496;2024-01-16T09:39:24;99846.09;;;4.67;52.28
50702;BME280;36670;50.094;8.496;2024-01-16T09:41:50;99847.38;;;4.65;52.69
50702;BME280;36670;50.094;8.496;2024-01-16T09:44:15;99851.09;;;4.70;52.11
50702;BME280;36670;50.094;8.496;2024-01-16T09:46:44;99842.25;;;4.75;51.92
50702;BME280;36670;50.094;8.496;2024-01-16T09:49:12;99857.50;;;4.83;52.33
50702;BME280;36670;50.094;8.496;2024-01-16T09:51:39;99863.59;;;5.03;52.54
50702;BME280;36670;50.094;8.496;2024-01-16T09:54:05;99862.09;;;5.07;51.86
50702;BME280;36670;50.094;8.496;2024-01-16T09:56:35;99864.09;;;5.37;51.75
50702;BME280;36670;50.094;8.496;2024-01-16T09:59:05;99857.16;;;5.35;51.85
50702;BME280;36670;50.094;8.496;2024-01-16T10:01:31;99855.50;;;5.15;51.35
50702;BME280;36670;50.094;8.496;2024-01-16T10:03:58;99861.94;;;5.21;51.62
50702;BME280;36670;50.094;8.496;2024-01-16T10:06:24;99858.81;;;5.54;51.65
50702;BME280;36670;50.094;8.496;2024-01-16T10:08:49;99866.66;;;5.32;51.60
50702;BME280;36670;50.094;8.496;2024-01-16T10:11:15;99869.16;;;5.34;51.81
50702;BME280;36670;50.094;8.496;2024-01-16T10:13:40;99863.50;;;5.96;50.85
50702;BME280;36670;50.094;8.496;2024-01-16T10:16:06;99859.63;;;4.81;52.29
50702;BME280;36670;50.094;8.496;2024-01-16T10:18:32;99854.03;;;5.31;51.36
50702;BME280;36670;50.094;8.496;2024-01-16T10:20:59;99854.25;;;5.29;51.50
50702;BME280;36670;50.094;8.496;2024-01-16T10:23:26;99845.53;;;5.21;51.72
50702;BME280;36670;50.094;8.496;2024-01-16T10:26:08;99845.59;;;5.51;51.61
50702;BME280;36670;50.094;8.496;2024-01-16T10:28:35;99841.03;;;5.08;52.05
50702;BME280;36670;50.094;8.496;2024-01-16T10:31:02;99833.66;;;6.06;50.70
50702;BME280;36670;50.094;8.496;2024-01-16T10:33:28;99840.63;;;5.60;50.89
50702;BME280;36670;50.094;8.496;2024-01-16T10:38:33;99828.09;;;6.25;50.51
50702;BME280;36670;50.094;8.496;2024-01-16T10:41:19;99820.00;;;6.18;49.94
50702;BME280;36670;50.094;8.496;2024-01-16T10:44:03;99827.63;;;6.40;49.50
50702;BME280;36670;50.094;8.496;2024-01-16T10:46:28;99819.63;;;6.14;50.29
50702;BME280;36670;50.094;8.496;2024-01-16T10:49:02;99819.13;;;5.75;50.57
50702;BME280;36670;50.094;8.496;2024-01-16T10:51:28;99816.34;;;6.60;49.69
50702;BME280;36670;50.094;8.496;2024-01-16T10:54:00;99802.81;;;7.06;48.90
50702;BME280;36670;50.094;8.496;2024-01-16T10:56:27;99806.16;;;6.13;50.21
50702;BME280;36670;50.094;8.496;2024-01-16T10:59:14;99804.94;;;5.78;50.74
50702;BME280;36670;50.094;8.496;2024-01-16T11:01:55;99809.63;;;5.10;52.03
50702;BME280;36670;50.094;8.496;2024-01-16T11:04:21;99805.44;;;5.08;52.28
50702;BME280;36670;50.094;8.496;2024-01-16T11:06:54;99797.88;;;5.10;52.38
50702;BME280;36670;50.094;8.496;2024-01-16T11:09:20;99805.38;;;5.15;52.23
50702;BME280;36670;50.094;8.496;2024-01-16T11:11:46;99782.59;;;5.21;52.68
50702;BME280;36670;50.094;8.496;2024-01-16T11:14:15;99782.00;;;5.49;52.41
50702;BME280;36670;50.094;8.496;2024-01-16T11:16:41;99777.88;;;5.58;52.50
50702;BME280;36670;50.094;8.496;2024-01-16T11:19:08;99780.78;;;5.87;51.92
50702;BME280;36670;50.094;8.496;2024-01-16T11:21:36;99789.25;;;5.86;52.25
50702;BME280;36670;50.094;8.496;2024-01-16T11:24:02;99778.66;;;5.89;52.37
50702;BME280;36670;50.094;8.496;2024-01-16T11:28:58;99773.69;;;5.98;51.87
50702;BME280;36670;50.094;8.496;2024-01-16T11:31:32;99759.94;;;5.44;51.72
50702;BME280;36670;50.094;8.496;2024-01-16T11:33:58;99750.16;;;5.78;52.12
50702;BME280;36670;50.094;8.496;2024-01-16T11:39:17;99740.69;;;5.93;52.03
50702;BME280;36670;50.094;8.496;2024-01-16T11:41:55;99731.22;;;5.77;51.86
50702;BME280;36670;50.094;8.496;2024-01-16T11:44:53;99724.81;;;5.41;52.97
50702;BME280;36670;50.094;8.496;2024-01-16T11:47:23;99728.81;;;5.57;52.04
50702;BME280;36670;50.094;8.496;2024-01-16T11:49:51;99726.66;;;5.47;52.13
50702;BME280;36670;50.094;8.496;2024-01-16T11:52:42;99725.56;;;5.48;52.25
50702;BME280;36670;50.094;8.496;2024-01-16T11:55:29;99731.22;;;5.77;52.32
50702;BME280;36670;50.094;8.496;2024-01-16T11:58:43;99715.56;;;6.08;51.98
50702;BME280;36670;50.094;8.496;2024-01-16T12:01:10;99710.47;;;6.11;50.86
50702;BME280;36670;50.094;8.496;2024-01-16T12:03:39;99699.03;;;6.26;50.75
50702;BME280;36670;50.094;8.496;2024-01-16T12:06:25;99693.53;;;6.14;51.48
50702;BME280;36670;50.094;8.496;2024-01-16T12:09:16;99698.06;;;6.09;50.60
50702;BME280;36670;50.094;8.496;2024-01-16T12:11:55;99696.28;;;6.14;50.99
50702;BME280;36670;50.094;8.496;2024-01-16T12:14:22;99698.50;;;5.94;51.14
50702;BME280;36670;50.094;8.496;2024-01-16T12:16:48;99688.06;;;6.26;50.94
50702;BME280;36670;50.094;8.496;2024-01-16T12:19:16;99687.53;;;5.82;51.10
50702;BME280;36670;50.094;8.496;2024-01-16T12:21:45;99690.34;;;5.21;51.17
50702;BME280;36670;50.094;8.496;2024-01-16T12:24:11;99690.78;;;5.06;51.85
50702;BME280;36670;50.094;8.496;2024-01-16T12:26:39;99690.69;;;5.43;51.88
50702;BME280;36670;50.094;8.496;2024-01-16T12:29:09;99691.41;;;5.51;51.48
50702;BME280;36670;50.094;8.496;2024-01-16T12:31:46;99676.88;;;5.50;50.94
50702;BME280;36670;50.094;8.496;2024-01-16T12:34:14;99678.41;;;5.46;51.10
50702;BME280;36670;50.094;8.496;2024-01-16T12:36:43;99677.16;;;5.18;50.93
50702;BME280;36670;50.094;8.496;2024-01-16T12:39:19;99679.50;;;4.84;51.63
50702;BME280;36670;50.094;8.496;2024-01-16T12:41:59;99678.84;;;5.01;51.78
50702;BME280;36670;50.094;8.496;2024-01-16T12:44:37;99667.81;;;5.07;51.64
50702;BME280;36670;50.094;8.496;2024-01-16T12:47:25;99668.91;;;5.49;51.41
50702;BME280;36670;50.094;8.496;2024-01-16T12:49:51;99665.06;;;5.38;51.52
50702;BME280;36670;50.094;8.496;2024-01-16T12:52:21;99655.94;;;5.56;50.81
50702;BME280;36670;50.094;8.496;2024-01-16T12:54:58;99662.81;;;5.35;51.45
50702;BME280;36670;50.094;8.496;2024-01-16T12:57:25;99657.59;;;5.45;50.46
50702;BME280;36670;50.094;8.496;2024-01-16T12:59:50;99657.09;;;5.48;50.12
50702;BME280;36670;50.094;8.496;2024-01-16T13:02:24;99655.75;;;5.27;50.61
50702;BME280;36670;50.094;8.496;2024-01-16T13:04:59;99652.16;;;5.57;49.70
50702;BME280;36670;50.094;8.496;2024-01-16T13:07:27;99650.50;;;5.13;49.98
50702;BME280;36670;50.094;8.496;2024-01-16T13:10:12;99644.38;;;5.00;49.42
50702;BME280;36670;50.094;8.496;2024-01-16T13:12:41;99642.38;;;5.07;50.41
50702;BME280;36670;50.094;8.496;2024-01-16T13:15:10;99640.75;;;5.29;49.91
50702;BME280;36670;50.094;8.496;2024-01-16T13:17:36;99640.38;;;5.14;50.36
50702;BME280;36670;50.094;8.496;2024-01-16T13:20:05;99632.09;;;5.33;50.29
50702;BME280;36670;50.094;8.496;2024-01-16T13:22:35;99610.28;;;5.26;49.87
50702;BME280;36670;50.094;8.496;2024-01-16T13:25:01;99640.00;;;5.10;50.55
50702;BME280;36670;50.094;8.496;2024-01-16T13:27:34;99637.41;;;5.16;50.33
50702;BME280;36670;50.094;8.496;2024-01-16T13:29:59;99630.91;;;5.40;50.09
50702;BME280;36670;50.094;8.496;2024-01-16T13:32:31;99632.50;;;5.06;50.15
50702;BME280;36670;50.094;8.496;2024-01-16T13:35:02;99628.56;;;5.02;50.25